This demonstration page uses our WeatherBlox Daily Observations layout. Learn more.

41.55636, -103.73856

Hourly Observations for July 14, 2019

Temp ( °F °C ) Dew Point ( °F °C ) Humidity (%) Winds ( mph kmh ) Pressure ( in mb ) Visibility ( mi km ) Precip ( " mm )
12:58 am 00:58 Clear 81 27.2 63 17.2 54 54 SSE 3 6 29.97 1015 10 16.0934 0 0
1:58 am 01:58 Clear 79 26.1 63 17 57 57 ESE 3 6 29.96 1015 10 16.0934 0 0
2:58 am 02:58 Mostly Cloudy 75 23.7 61 15.9 62 62 SE 6 9 29.97 1015 10 16.0934 0 0
3:58 am 03:58 Mostly Cloudy 72 22.1 51 10.5 48 48 S 23 37 29.99 1016 10 16.0934 0 0
4:58 am 04:58 Partly Cloudy 68 20.1 54 12.3 61 61 S 18 30 30.01 1016 10 16.0934 0 0
5:58 am 05:58 Clear 71 21.4 50 10.2 49 49 SW 18 30 29.98 1015 10 16.0934 0 0
6:58 am 06:58 Mostly Clear 69 20.5 51 10.3 52 52 SSW 16 26 29.96 1015 10 16.0934 0 0
7:58 am 07:58 Mostly Cloudy 69 20.8 51 10.3 51 51 SW 16 26 29.95 1014 10 16.0934 0 0
8:58 am 08:58 Mostly Cloudy 69 20.6 51 10.5 53 53 SW 14 22 29.93 1014 10 16.0934 0 0
9:58 am 09:58 Mostly Cloudy 67 19.3 52 10.9 58 58 SW 14 22 29.93 1014 10 16.0934 0 0
10:58 am 10:58 Clear 66 18.8 51 10.8 60 60 SW 16 26 29.95 1014 10 16.0934 0 0
11:58 am 11:58 Sunny 63 17.2 51 10.7 66 66 WSW 12 19 29.98 1015 10 16.0934 0 0
12:58 pm 12:58 Sunny 66 19.1 53 11.8 63 63 WSW 12 19 29.99 1016 10 16.0934 0 0
1:58 pm 13:58 Sunny 73 22.9 55 12.6 52 52 WSW 10 17 30 1016 10 16.0934 0 0
2:58 pm 14:58 Partly Cloudy 75 24.1 54 12 47 47 W 10 17 30 1016 10 16.0934 0 0
3:58 pm 15:58 Sunny 80 26.7 53 11.8 40 40 WNW 9 15 30 1016 10 16.0934 0 0
4:58 pm 16:58 Sunny 82 27.9 53 11.5 36 36 WNW 13 20 30.01 1016 10 16.0934 0 0
5:58 pm 17:58 Mostly Sunny 85 29.2 49 9.7 30 30 NW 15 24 30 1016 10 16.0934 0 0
6:58 pm 18:58 Mostly Cloudy 84 29 50 10.1 31 31 NW 12 19 29.99 1016 10 16.0934 0 0
7:58 pm 19:58 Mostly Sunny 87 30.3 53 11.8 32 32 SW 5 7 29.98 1015 10 16.0934 0 0
8:58 pm 20:58 Mostly Sunny 87 30.6 51 10.3 28 28 Calm 29.95 1014 10 16.0934 0 0
9:58 pm 21:58 Partly Cloudy 84 28.7 54 12.2 36 36 N 5 7 29.96 1014 10 16.0934 0 0
10:58 pm 22:58 Mostly Cloudy 73 23 57 13.7 56 56 S 14 22 30 1016 10 16.0934 0 0
11:58 pm 23:58 Mostly Sunny 75 23.7 57 14.1 55 55 S 10 17 29.98 1015 10 16.0934 0 0

Powered by AerisWeather